sensor_id;sensor_type;location;lat;lon;timestamp;P1;durP1;ratioP1;P2;durP2;ratioP2
32697;SDS011;19087;51.062;3.754;2022-07-06T00:01:40;10.43;;;3.50;;
32697;SDS011;19087;51.062;3.754;2022-07-06T00:04:06;5.70;;;2.90;;
32697;SDS011;19087;51.062;3.754;2022-07-06T00:06:31;6.32;;;3.17;;
32697;SDS011;19087;51.062;3.754;2022-07-06T00:08:57;9.05;;;3.60;;
32697;SDS011;19087;51.062;3.754;2022-07-06T00:11:24;9.80;;;3.38;;
32697;SDS011;19087;51.062;3.754;2022-07-06T00:13:50;7.45;;;3.80;;
32697;SDS011;19087;51.062;3.754;2022-07-06T00:16:16;14.73;;;4.85;;
32697;SDS011;19087;51.062;3.754;2022-07-06T00:18:43;10.23;;;3.85;;
32697;SDS011;19087;51.062;3.754;2022-07-06T00:21:09;9.77;;;3.85;;
32697;SDS011;19087;51.062;3.754;2022-07-06T00:23:34;12.82;;;4.78;;
32697;SDS011;19087;51.062;3.754;2022-07-06T00:26:00;5.22;;;3.83;;
32697;SDS011;19087;51.062;3.754;2022-07-06T00:28:26;6.35;;;3.58;;
32697;SDS011;19087;51.062;3.754;2022-07-06T00:30:52;14.43;;;4.22;;
32697;SDS011;19087;51.062;3.754;2022-07-06T00:33:18;7.97;;;3.97;;
32697;SDS011;19087;51.062;3.754;2022-07-06T00:35:43;6.68;;;3.28;;
32697;SDS011;19087;51.062;3.754;2022-07-06T00:38:09;8.98;;;3.80;;
32697;SDS011;19087;51.062;3.754;2022-07-06T00:40:35;7.47;;;3.30;;
32697;SDS011;19087;51.062;3.754;2022-07-06T00:43:00;6.93;;;3.95;;
32697;SDS011;19087;51.062;3.754;2022-07-06T00:45:27;5.28;;;3.10;;
32697;SDS011;19087;51.062;3.754;2022-07-06T00:47:53;7.85;;;4.20;;
32697;SDS011;19087;51.062;3.754;2022-07-06T00:50:19;6.97;;;3.58;;
32697;SDS011;19087;51.062;3.754;2022-07-06T00:52:50;9.55;;;3.60;;
32697;SDS011;19087;51.062;3.754;2022-07-06T00:55:28;9.93;;;3.67;;
32697;SDS011;19087;51.062;3.754;2022-07-06T00:57:55;8.35;;;3.65;;
32697;SDS011;19087;51.062;3.754;2022-07-06T01:00:22;8.57;;;3.95;;
32697;SDS011;19087;51.062;3.754;2022-07-06T01:02:50;7.25;;;3.35;;
32697;SDS011;19087;51.062;3.754;2022-07-06T01:05:16;8.57;;;3.38;;
32697;SDS011;19087;51.062;3.754;2022-07-06T01:07:44;6.75;;;3.05;;
32697;SDS011;19087;51.062;3.754;2022-07-06T01:10:12;14.63;;;3.40;;
32697;SDS011;19087;51.062;3.754;2022-07-06T01:12:40;7.68;;;3.17;;
32697;SDS011;19087;51.062;3.754;2022-07-06T01:15:10;12.43;;;3.50;;
32697;SDS011;19087;51.062;3.754;2022-07-06T01:17:39;12.27;;;4.05;;
32697;SDS011;19087;51.062;3.754;2022-07-06T01:20:18;9.07;;;3.78;;
32697;SDS011;19087;51.062;3.754;2022-07-06T01:22:45;8.25;;;4.07;;
32697;SDS011;19087;51.062;3.754;2022-07-06T01:25:12;7.28;;;3.72;;
32697;SDS011;19087;51.062;3.754;2022-07-06T01:27:39;9.25;;;3.63;;
32697;SDS011;19087;51.062;3.754;2022-07-06T01:30:17;7.78;;;3.90;;
32697;SDS011;19087;51.062;3.754;2022-07-06T01:32:44;6.30;;;3.20;;
32697;SDS011;19087;51.062;3.754;2022-07-06T01:35:11;8.95;;;3.47;;
32697;SDS011;19087;51.062;3.754;2022-07-06T01:37:38;8.43;;;3.65;;
32697;SDS011;19087;51.062;3.754;2022-07-06T01:40:05;5.30;;;3.55;;
32697;SDS011;19087;51.062;3.754;2022-07-06T01:42:33;7.60;;;4.15;;
32697;SDS011;19087;51.062;3.754;2022-07-06T01:44:59;4.75;;;3.10;;
32697;SDS011;19087;51.062;3.754;2022-07-06T01:47:25;9.27;;;3.67;;
32697;SDS011;19087;51.062;3.754;2022-07-06T01:49:51;13.63;;;3.70;;
32697;SDS011;19087;51.062;3.754;2022-07-06T01:52:17;7.20;;;3.75;;
32697;SDS011;19087;51.062;3.754;2022-07-06T01:54:43;4.82;;;3.35;;
32697;SDS011;19087;51.062;3.754;2022-07-06T01:57:09;8.57;;;3.47;;
32697;SDS011;19087;51.062;3.754;2022-07-06T01:59:35;9.82;;;3.42;;
32697;SDS011;19087;51.062;3.754;2022-07-06T02:02:01;8.60;;;3.08;;
32697;SDS011;19087;51.062;3.754;2022-07-06T02:04:26;6.45;;;3.35;;
32697;SDS011;19087;51.062;3.754;2022-07-06T02:06:52;8.57;;;3.15;;
32697;SDS011;19087;51.062;3.754;2022-07-06T02:09:18;5.40;;;3.42;;
32697;SDS011;19087;51.062;3.754;2022-07-06T02:11:43;5.97;;;4.03;;
32697;SDS011;19087;51.062;3.754;2022-07-06T02:14:09;5.78;;;3.78;;
32697;SDS011;19087;51.062;3.754;2022-07-06T02:16:35;6.43;;;3.58;;
32697;SDS011;19087;51.062;3.754;2022-07-06T02:19:02;9.20;;;3.58;;
32697;SDS011;19087;51.062;3.754;2022-07-06T02:21:30;6.30;;;3.80;;
32697;SDS011;19087;51.062;3.754;2022-07-06T02:23:56;8.68;;;3.78;;
32697;SDS011;19087;51.062;3.754;2022-07-06T02:26:21;7.22;;;3.53;;
32697;SDS011;19087;51.062;3.754;2022-07-06T02:28:48;9.27;;;4.55;;
32697;SDS011;19087;51.062;3.754;2022-07-06T02:31:14;10.95;;;4.40;;
32697;SDS011;19087;51.062;3.754;2022-07-06T02:33:40;7.65;;;4.38;;
32697;SDS011;19087;51.062;3.754;2022-07-06T02:36:06;8.88;;;3.55;;
32697;SDS011;19087;51.062;3.754;2022-07-06T02:38:34;7.65;;;3.42;;
32697;SDS011;19087;51.062;3.754;2022-07-06T02:40:59;7.50;;;3.58;;
32697;SDS011;19087;51.062;3.754;2022-07-06T02:43:25;9.93;;;3.80;;
32697;SDS011;19087;51.062;3.754;2022-07-06T02:45:52;7.03;;;3.60;;
32697;SDS011;19087;51.062;3.754;2022-07-06T02:48:17;5.18;;;3.45;;
32697;SDS011;19087;51.062;3.754;2022-07-06T02:50:46;8.93;;;3.92;;
32697;SDS011;19087;51.062;3.754;2022-07-06T02:53:12;7.97;;;3.70;;
32697;SDS011;19087;51.062;3.754;2022-07-06T02:55:37;8.35;;;3.63;;
32697;SDS011;19087;51.062;3.754;2022-07-06T02:58:03;6.50;;;4.20;;
32697;SDS011;19087;51.062;3.754;2022-07-06T03:00:29;11.05;;;3.95;;
32697;SDS011;19087;51.062;3.754;2022-07-06T03:02:54;8.43;;;4.65;;
32697;SDS011;19087;51.062;3.754;2022-07-06T03:05:20;6.93;;;3.95;;
32697;SDS011;19087;51.062;3.754;2022-07-06T03:07:46;8.95;;;5.25;;
32697;SDS011;19087;51.062;3.754;2022-07-06T03:10:11;7.43;;;4.22;;
32697;SDS011;19087;51.062;3.754;2022-07-06T03:12:37;8.23;;;3.75;;
32697;SDS011;19087;51.062;3.754;2022-07-06T03:15:04;5.85;;;3.72;;
32697;SDS011;19087;51.062;3.754;2022-07-06T03:17:30;4.78;;;3.60;;
32697;SDS011;19087;51.062;3.754;2022-07-06T03:19:56;7.13;;;3.90;;
32697;SDS011;19087;51.062;3.754;2022-07-06T03:22:22;12.20;;;4.05;;
32697;SDS011;19087;51.062;3.754;2022-07-06T03:24:47;7.05;;;3.72;;
32697;SDS011;19087;51.062;3.754;2022-07-06T03:27:14;9.55;;;4.47;;
32697;SDS011;19087;51.062;3.754;2022-07-06T03:29:40;7.65;;;3.78;;
32697;SDS011;19087;51.062;3.754;2022-07-06T03:32:06;8.63;;;4.40;;
32697;SDS011;19087;51.062;3.754;2022-07-06T03:34:31;8.93;;;4.32;;
32697;SDS011;19087;51.062;3.754;2022-07-06T03:36:57;6.03;;;3.88;;
32697;SDS011;19087;51.062;3.754;2022-07-06T03:39:23;12.77;;;3.70;;
32697;SDS011;19087;51.062;3.754;2022-07-06T03:41:48;10.55;;;4.30;;
32697;SDS011;19087;51.062;3.754;2022-07-06T03:44:14;9.68;;;3.70;;
32697;SDS011;19087;51.062;3.754;2022-07-06T03:46:39;5.65;;;3.30;;
32697;SDS011;19087;51.062;3.754;2022-07-06T03:49:05;7.20;;;3.60;;
32697;SDS011;19087;51.062;3.754;2022-07-06T03:51:31;6.72;;;3.47;;
32697;SDS011;19087;51.062;3.754;2022-07-06T03:53:56;9.05;;;4.32;;
32697;SDS011;19087;51.062;3.754;2022-07-06T03:56:22;7.07;;;4.47;;
32697;SDS011;19087;51.062;3.754;2022-07-06T03:58:54;9.93;;;4.40;;
32697;SDS011;19087;51.062;3.754;2022-07-06T04:01:24;9.80;;;3.63;;
32697;SDS011;19087;51.062;3.754;2022-07-06T04:03:50;14.80;;;4.28;;
32697;SDS011;19087;51.062;3.754;2022-07-06T04:06:16;7.57;;;3.58;;
32697;SDS011;19087;51.062;3.754;2022-07-06T04:08:42;11.98;;;4.03;;
32697;SDS011;19087;51.062;3.754;2022-07-06T04:11:07;8.93;;;4.00;;
32697;SDS011;19087;51.062;3.754;2022-07-06T04:13:33;9.00;;;4.07;;
32697;SDS011;19087;51.062;3.754;2022-07-06T04:15:58;9.10;;;4.03;;
32697;SDS011;19087;51.062;3.754;2022-07-06T04:18:24;7.32;;;3.85;;
32697;SDS011;19087;51.062;3.754;2022-07-06T04:20:50;10.00;;;3.60;;
32697;SDS011;19087;51.062;3.754;2022-07-06T04:23:16;9.38;;;3.90;;
32697;SDS011;19087;51.062;3.754;2022-07-06T04:25:42;7.70;;;4.72;;
32697;SDS011;19087;51.062;3.754;2022-07-06T04:28:08;7.30;;;3.88;;
32697;SDS011;19087;51.062;3.754;2022-07-06T04:30:33;9.02;;;4.30;;
32697;SDS011;19087;51.062;3.754;2022-07-06T04:32:59;11.98;;;3.90;;
32697;SDS011;19087;51.062;3.754;2022-07-06T04:35:25;7.93;;;3.97;;
32697;SDS011;19087;51.062;3.754;2022-07-06T04:37:50;13.77;;;4.55;;
32697;SDS011;19087;51.062;3.754;2022-07-06T04:40:16;8.10;;;4.32;;
32697;SDS011;19087;51.062;3.754;2022-07-06T04:42:42;11.45;;;3.60;;
32697;SDS011;19087;51.062;3.754;2022-07-06T04:45:09;5.35;;;4.03;;
32697;SDS011;19087;51.062;3.754;2022-07-06T04:47:35;5.22;;;4.00;;
32697;SDS011;19087;51.062;3.754;2022-07-06T04:50:01;14.48;;;4.25;;
32697;SDS011;19087;51.062;3.754;2022-07-06T04:52:27;6.57;;;4.35;;
32697;SDS011;19087;51.062;3.754;2022-07-06T04:54:56;7.10;;;4.00;;
32697;SDS011;19087;51.062;3.754;2022-07-06T04:57:21;9.05;;;4.55;;
32697;SDS011;19087;51.062;3.754;2022-07-06T04:59:47;8.68;;;4.15;;
32697;SDS011;19087;51.062;3.754;2022-07-06T05:02:12;9.38;;;5.28;;
32697;SDS011;19087;51.062;3.754;2022-07-06T05:04:38;7.65;;;4.40;;
32697;SDS011;19087;51.062;3.754;2022-07-06T05:07:04;12.63;;;4.78;;
32697;SDS011;19087;51.062;3.754;2022-07-06T05:09:30;5.60;;;4.60;;
32697;SDS011;19087;51.062;3.754;2022-07-06T05:11:56;7.80;;;4.63;;
32697;SDS011;19087;51.062;3.754;2022-07-06T05:14:21;8.93;;;4.63;;
32697;SDS011;19087;51.062;3.754;2022-07-06T05:16:47;14.45;;;5.43;;
32697;SDS011;19087;51.062;3.754;2022-07-06T05:19:12;13.43;;;5.18;;
32697;SDS011;19087;51.062;3.754;2022-07-06T05:21:38;10.90;;;5.10;;
32697;SDS011;19087;51.062;3.754;2022-07-06T05:24:04;14.48;;;4.97;;
32697;SDS011;19087;51.062;3.754;2022-07-06T05:26:30;5.30;;;4.72;;
32697;SDS011;19087;51.062;3.754;2022-07-06T05:28:55;17.27;;;5.75;;
32697;SDS011;19087;51.062;3.754;2022-07-06T05:31:21;8.43;;;4.40;;
32697;SDS011;19087;51.062;3.754;2022-07-06T05:33:47;8.77;;;5.47;;
32697;SDS011;19087;51.062;3.754;2022-07-06T05:36:12;10.85;;;5.20;;
32697;SDS011;19087;51.062;3.754;2022-07-06T05:38:38;9.20;;;4.78;;
32697;SDS011;19087;51.062;3.754;2022-07-06T05:41:04;11.38;;;6.47;;
32697;SDS011;19087;51.062;3.754;2022-07-06T05:43:29;19.52;;;7.60;;
32697;SDS011;19087;51.062;3.754;2022-07-06T05:45:55;14.15;;;6.22;;
32697;SDS011;19087;51.062;3.754;2022-07-06T05:48:20;9.95;;;5.97;;
32697;SDS011;19087;51.062;3.754;2022-07-06T05:51:05;14.65;;;6.85;;
32697;SDS011;19087;51.062;3.754;2022-07-06T05:53:31;10.73;;;5.70;;
32697;SDS011;19087;51.062;3.754;2022-07-06T05:55:56;9.43;;;5.00;;
32697;SDS011;19087;51.062;3.754;2022-07-06T05:58:22;15.38;;;5.30;;
32697;SDS011;19087;51.062;3.754;2022-07-06T06:00:50;10.65;;;5.65;;
32697;SDS011;19087;51.062;3.754;2022-07-06T06:03:16;9.35;;;5.38;;
32697;SDS011;19087;51.062;3.754;2022-07-06T06:05:42;10.02;;;5.43;;
32697;SDS011;19087;51.062;3.754;2022-07-06T06:08:08;16.27;;;5.38;;
32697;SDS011;19087;51.062;3.754;2022-07-06T06:10:34;8.13;;;4.65;;
32697;SDS011;19087;51.062;3.754;2022-07-06T06:12:59;10.25;;;5.13;;
32697;SDS011;19087;51.062;3.754;2022-07-06T06:15:25;13.55;;;4.57;;
32697;SDS011;19087;51.062;3.754;2022-07-06T06:17:51;10.98;;;4.32;;
32697;SDS011;19087;51.062;3.754;2022-07-06T06:20:16;9.40;;;4.75;;
32697;SDS011;19087;51.062;3.754;2022-07-06T06:25:15;8.75;;;4.32;;
32697;SDS011;19087;51.062;3.754;2022-07-06T06:27:42;9.38;;;4.15;;
32697;SDS011;19087;51.062;3.754;2022-07-06T06:30:09;9.75;;;4.20;;
32697;SDS011;19087;51.062;3.754;2022-07-06T06:32:36;10.75;;;4.05;;
32697;SDS011;19087;51.062;3.754;2022-07-06T06:35:02;9.13;;;4.07;;
32697;SDS011;19087;51.062;3.754;2022-07-06T06:37:28;10.27;;;3.75;;
32697;SDS011;19087;51.062;3.754;2022-07-06T06:39:54;13.43;;;3.42;;
32697;SDS011;19087;51.062;3.754;2022-07-06T06:42:20;9.65;;;3.70;;
32697;SDS011;19087;51.062;3.754;2022-07-06T06:44:45;16.50;;;3.83;;
32697;SDS011;19087;51.062;3.754;2022-07-06T06:47:11;7.35;;;3.10;;
32697;SDS011;19087;51.062;3.754;2022-07-06T06:49:36;8.10;;;3.45;;
32697;SDS011;19087;51.062;3.754;2022-07-06T06:52:03;10.50;;;3.33;;
32697;SDS011;19087;51.062;3.754;2022-07-06T06:54:29;8.98;;;3.60;;
32697;SDS011;19087;51.062;3.754;2022-07-06T06:56:54;7.22;;;2.47;;
32697;SDS011;19087;51.062;3.754;2022-07-06T06:59:20;5.13;;;2.10;;
32697;SDS011;19087;51.062;3.754;2022-07-06T07:01:46;5.90;;;2.70;;
32697;SDS011;19087;51.062;3.754;2022-07-06T07:04:11;8.25;;;2.42;;
32697;SDS011;19087;51.062;3.754;2022-07-06T07:06:37;6.47;;;2.38;;
32697;SDS011;19087;51.062;3.754;2022-07-06T07:09:03;9.63;;;2.97;;
32697;SDS011;19087;51.062;3.754;2022-07-06T07:11:29;6.43;;;2.30;;
32697;SDS011;19087;51.062;3.754;2022-07-06T07:13:55;11.35;;;2.47;;
32697;SDS011;19087;51.062;3.754;2022-07-06T07:16:21;5.82;;;2.85;;
32697;SDS011;19087;51.062;3.754;2022-07-06T07:18:49;4.88;;;1.90;;
32697;SDS011;19087;51.062;3.754;2022-07-06T07:21:15;5.07;;;2.25;;
32697;SDS011;19087;51.062;3.754;2022-07-06T07:23:41;7.63;;;2.58;;
32697;SDS011;19087;51.062;3.754;2022-07-06T07:26:07;8.75;;;2.65;;
32697;SDS011;19087;51.062;3.754;2022-07-06T07:28:32;5.05;;;2.05;;
32697;SDS011;19087;51.062;3.754;2022-07-06T07:30:58;3.90;;;1.63;;
32697;SDS011;19087;51.062;3.754;2022-07-06T07:33:24;6.82;;;2.58;;
32697;SDS011;19087;51.062;3.754;2022-07-06T07:35:50;7.53;;;1.98;;
32697;SDS011;19087;51.062;3.754;2022-07-06T07:38:15;6.38;;;2.50;;
32697;SDS011;19087;51.062;3.754;2022-07-06T07:40:41;8.85;;;1.98;;
32697;SDS011;19087;51.062;3.754;2022-07-06T07:43:12;5.57;;;1.75;;
32697;SDS011;19087;51.062;3.754;2022-07-06T07:45:38;6.07;;;1.73;;
32697;SDS011;19087;51.062;3.754;2022-07-06T07:48:04;6.53;;;2.10;;
32697;SDS011;19087;51.062;3.754;2022-07-06T07:50:30;4.78;;;2.10;;
32697;SDS011;19087;51.062;3.754;2022-07-06T07:52:56;7.50;;;2.13;;
32697;SDS011;19087;51.062;3.754;2022-07-06T07:55:21;9.65;;;2.10;;
32697;SDS011;19087;51.062;3.754;2022-07-06T07:57:47;7.18;;;1.60;;
32697;SDS011;19087;51.062;3.754;2022-07-06T08:00:13;5.25;;;2.60;;
32697;SDS011;19087;51.062;3.754;2022-07-06T08:02:39;3.83;;;1.75;;
32697;SDS011;19087;51.062;3.754;2022-07-06T08:05:05;8.65;;;2.33;;
32697;SDS011;19087;51.062;3.754;2022-07-06T08:07:31;4.63;;;2.08;;
32697;SDS011;19087;51.062;3.754;2022-07-06T08:09:57;5.22;;;2.25;;
32697;SDS011;19087;51.062;3.754;2022-07-06T08:12:23;4.85;;;1.92;;
32697;SDS011;19087;51.062;3.754;2022-07-06T08:14:48;5.68;;;2.20;;
32697;SDS011;19087;51.062;3.754;2022-07-06T08:17:14;4.63;;;2.08;;
32697;SDS011;19087;51.062;3.754;2022-07-06T08:19:42;5.88;;;2.38;;
32697;SDS011;19087;51.062;3.754;2022-07-06T08:22:08;8.23;;;2.35;;
32697;SDS011;19087;51.062;3.754;2022-07-06T08:24:34;4.95;;;2.13;;
32697;SDS011;19087;51.062;3.754;2022-07-06T08:27:00;2.83;;;1.50;;
32697;SDS011;19087;51.062;3.754;2022-07-06T08:29:26;17.88;;;3.45;;
32697;SDS011;19087;51.062;3.754;2022-07-06T08:31:51;5.82;;;2.05;;
32697;SDS011;19087;51.062;3.754;2022-07-06T08:34:17;5.18;;;2.58;;
32697;SDS011;19087;51.062;3.754;2022-07-06T08:36:43;6.13;;;2.33;;
32697;SDS011;19087;51.062;3.754;2022-07-06T08:39:08;3.75;;;1.73;;
32697;SDS011;19087;51.062;3.754;2022-07-06T08:41:34;6.57;;;2.30;;
32697;SDS011;19087;51.062;3.754;2022-07-06T08:44:03;3.63;;;2.03;;
32697;SDS011;19087;51.062;3.754;2022-07-06T08:46:30;5.90;;;2.42;;
32697;SDS011;19087;51.062;3.754;2022-07-06T08:48:57;4.32;;;2.00;;
32697;SDS011;19087;51.062;3.754;2022-07-06T08:51:23;11.65;;;2.65;;
32697;SDS011;19087;51.062;3.754;2022-07-06T08:53:50;4.80;;;2.33;;
32697;SDS011;19087;51.062;3.754;2022-07-06T08:56:16;6.03;;;2.25;;
32697;SDS011;19087;51.062;3.754;2022-07-06T08:58:43;7.20;;;3.13;;
32697;SDS011;19087;51.062;3.754;2022-07-06T09:01:09;5.68;;;2.72;;
32697;SDS011;19087;51.062;3.754;2022-07-06T09:03:35;9.00;;;2.97;;
32697;SDS011;19087;51.062;3.754;2022-07-06T09:06:01;5.50;;;2.47;;
32697;SDS011;19087;51.062;3.754;2022-07-06T09:08:28;9.07;;;3.30;;
32697;SDS011;19087;51.062;3.754;2022-07-06T09:10:56;7.15;;;3.50;;
32697;SDS011;19087;51.062;3.754;2022-07-06T09:13:22;10.68;;;2.55;;
32697;SDS011;19087;51.062;3.754;2022-07-06T09:15:48;8.35;;;2.60;;
32697;SDS011;19087;51.062;3.754;2022-07-06T09:18:14;6.88;;;2.20;;
32697;SDS011;19087;51.062;3.754;2022-07-06T09:20:42;7.65;;;2.67;;
32697;SDS011;19087;51.062;3.754;2022-07-06T09:23:08;6.25;;;2.25;;
32697;SDS011;19087;51.062;3.754;2022-07-06T09:25:34;6.72;;;2.60;;
32697;SDS011;19087;51.062;3.754;2022-07-06T09:28:01;6.40;;;2.45;;
32697;SDS011;19087;51.062;3.754;2022-07-06T09:30:28;6.90;;;2.40;;
32697;SDS011;19087;51.062;3.754;2022-07-06T09:32:55;9.05;;;2.80;;
32697;SDS011;19087;51.062;3.754;2022-07-06T09:35:27;12.48;;;3.60;;
32697;SDS011;19087;51.062;3.754;2022-07-06T09:38:00;9.93;;;3.03;;
32697;SDS011;19087;51.062;3.754;2022-07-06T09:40:31;7.47;;;2.70;;
32697;SDS011;19087;51.062;3.754;2022-07-06T09:43:14;5.53;;;2.55;;
32697;SDS011;19087;51.062;3.754;2022-07-06T09:45:42;7.50;;;2.60;;
32697;SDS011;19087;51.062;3.754;2022-07-06T09:48:13;6.50;;;2.25;;
32697;SDS011;19087;51.062;3.754;2022-07-06T09:50:44;7.53;;;2.83;;
32697;SDS011;19087;51.062;3.754;2022-07-06T09:53:12;5.07;;;1.77;;
32697;SDS011;19087;51.062;3.754;2022-07-06T09:55:44;8.02;;;2.65;;
32697;SDS011;19087;51.062;3.754;2022-07-06T09:58:12;6.13;;;2.00;;
32697;SDS011;19087;51.062;3.754;2022-07-06T10:00:38;8.30;;;2.50;;
32697;SDS011;19087;51.062;3.754;2022-07-06T10:03:04;6.78;;;2.50;;
32697;SDS011;19087;51.062;3.754;2022-07-06T10:05:31;10.77;;;2.55;;
32697;SDS011;19087;51.062;3.754;2022-07-06T10:07:58;8.10;;;2.75;;
32697;SDS011;19087;51.062;3.754;2022-07-06T10:10:28;4.43;;;1.83;;
32697;SDS011;19087;51.062;3.754;2022-07-06T10:12:55;5.22;;;1.85;;
32697;SDS011;19087;51.062;3.754;2022-07-06T10:15:26;5.57;;;2.53;;
32697;SDS011;19087;51.062;3.754;2022-07-06T10:17:53;6.47;;;2.42;;
32697;SDS011;19087;51.062;3.754;2022-07-06T10:20:20;5.22;;;2.40;;
32697;SDS011;19087;51.062;3.754;2022-07-06T10:22:49;8.57;;;2.70;;
32697;SDS011;19087;51.062;3.754;2022-07-06T10:25:18;10.82;;;4.97;;
32697;SDS011;19087;51.062;3.754;2022-07-06T10:27:48;9.77;;;2.30;;
32697;SDS011;19087;51.062;3.754;2022-07-06T10:30:14;6.20;;;2.65;;
32697;SDS011;19087;51.062;3.754;2022-07-06T10:32:41;8.98;;;2.08;;
32697;SDS011;19087;51.062;3.754;2022-07-06T10:35:09;6.22;;;2.63;;
32697;SDS011;19087;51.062;3.754;2022-07-06T10:37:34;8.10;;;2.50;;
32697;SDS011;19087;51.062;3.754;2022-07-06T10:40:01;9.82;;;2.88;;
32697;SDS011;19087;51.062;3.754;2022-07-06T10:45:20;7.78;;;1.90;;
32697;SDS011;19087;51.062;3.754;2022-07-06T10:50:37;5.63;;;2.20;;
32697;SDS011;19087;51.062;3.754;2022-07-06T10:53:09;10.32;;;2.75;;
32697;SDS011;19087;51.062;3.754;2022-07-06T10:55:37;7.57;;;2.70;;
32697;SDS011;19087;51.062;3.754;2022-07-06T10:58:04;5.10;;;2.15;;
32697;SDS011;19087;51.062;3.754;2022-07-06T11:03:32;4.20;;;1.70;;
32697;SDS011;19087;51.062;3.754;2022-07-06T11:05:58;4.68;;;1.75;;
32697;SDS011;19087;51.062;3.754;2022-07-06T11:17:00;4.10;;;1.73;;
32697;SDS011;19087;51.062;3.754;2022-07-06T11:19:26;5.32;;;1.98;;
32697;SDS011;19087;51.062;3.754;2022-07-06T11:21:56;7.82;;;2.15;;
32697;SDS011;19087;51.062;3.754;2022-07-06T11:26:54;5.22;;;2.13;;
32697;SDS011;19087;51.062;3.754;2022-07-06T11:29:22;6.47;;;2.35;;
32697;SDS011;19087;51.062;3.754;2022-07-06T11:31:51;5.13;;;1.75;;
32697;SDS011;19087;51.062;3.754;2022-07-06T11:34:20;7.13;;;1.77;;
32697;SDS011;19087;51.062;3.754;2022-07-06T11:39:26;4.80;;;1.77;;
32697;SDS011;19087;51.062;3.754;2022-07-06T11:41:56;6.55;;;2.10;;
32697;SDS011;19087;51.062;3.754;2022-07-06T11:44:23;4.57;;;1.30;;
32697;SDS011;19087;51.062;3.754;2022-07-06T11:46:49;6.32;;;1.67;;
32697;SDS011;19087;51.062;3.754;2022-07-06T11:49:15;4.45;;;2.03;;
32697;SDS011;19087;51.062;3.754;2022-07-06T11:51:42;6.07;;;2.00;;
32697;SDS011;19087;51.062;3.754;2022-07-06T11:54:10;6.93;;;1.88;;
32697;SDS011;19087;51.062;3.754;2022-07-06T11:59:15;4.20;;;1.48;;
32697;SDS011;19087;51.062;3.754;2022-07-06T12:01:41;6.70;;;1.80;;
32697;SDS011;19087;51.062;3.754;2022-07-06T12:04:09;4.75;;;1.77;;
32697;SDS011;19087;51.062;3.754;2022-07-06T12:06:36;5.20;;;1.65;;
32697;SDS011;19087;51.062;3.754;2022-07-06T12:09:02;5.43;;;1.70;;
32697;SDS011;19087;51.062;3.754;2022-07-06T12:11:30;9.88;;;1.90;;
32697;SDS011;19087;51.062;3.754;2022-07-06T12:13:58;5.57;;;1.88;;
32697;SDS011;19087;51.062;3.754;2022-07-06T12:16:35;3.63;;;1.98;;
32697;SDS011;19087;51.062;3.754;2022-07-06T12:19:02;6.13;;;2.08;;
32697;SDS011;19087;51.062;3.754;2022-07-06T12:21:28;4.72;;;1.98;;
32697;SDS011;19087;51.062;3.754;2022-07-06T12:23:54;7.00;;;2.05;;
32697;SDS011;19087;51.062;3.754;2022-07-06T12:26:24;5.97;;;2.53;;
32697;SDS011;19087;51.062;3.754;2022-07-06T12:29:00;6.55;;;3.35;;
32697;SDS011;19087;51.062;3.754;2022-07-06T12:31:36;7.03;;;2.10;;
32697;SDS011;19087;51.062;3.754;2022-07-06T12:34:04;8.85;;;2.38;;
32697;SDS011;19087;51.062;3.754;2022-07-06T12:36:30;8.10;;;2.97;;
32697;SDS011;19087;51.062;3.754;2022-07-06T12:38:56;8.85;;;2.78;;
32697;SDS011;19087;51.062;3.754;2022-07-06T12:43:59;7.05;;;2.20;;
32697;SDS011;19087;51.062;3.754;2022-07-06T12:46:30;5.32;;;2.13;;
32697;SDS011;19087;51.062;3.754;2022-07-06T12:48:58;7.30;;;1.90;;
32697;SDS011;19087;51.062;3.754;2022-07-06T12:51:25;9.90;;;2.88;;
32697;SDS011;19087;51.062;3.754;2022-07-06T12:53:56;7.35;;;2.63;;
32697;SDS011;19087;51.062;3.754;2022-07-06T12:56:55;5.05;;;2.30;;
32697;SDS011;19087;51.062;3.754;2022-07-06T12:59:24;10.80;;;3.30;;
32697;SDS011;19087;51.062;3.754;2022-07-06T13:01:51;9.13;;;3.17;;
32697;SDS011;19087;51.062;3.754;2022-07-06T13:04:26;8.35;;;2.65;;
32697;SDS011;19087;51.062;3.754;2022-07-06T13:06:54;7.72;;;2.95;;
32697;SDS011;19087;51.062;3.754;2022-07-06T13:09:20;8.18;;;3.40;;
32697;SDS011;19087;51.062;3.754;2022-07-06T13:11:47;10.10;;;2.70;;
32697;SDS011;19087;51.062;3.754;2022-07-06T13:14:14;7.05;;;2.92;;
32697;SDS011;19087;51.062;3.754;2022-07-06T13:16:41;7.20;;;3.30;;
32697;SDS011;19087;51.062;3.754;2022-07-06T13:19:11;6.78;;;2.67;;
32697;SDS011;19087;51.062;3.754;2022-07-06T13:21:37;10.20;;;3.00;;
32697;SDS011;19087;51.062;3.754;2022-07-06T13:24:03;9.48;;;2.67;;
32697;SDS011;19087;51.062;3.754;2022-07-06T13:26:29;9.70;;;3.22;;
32697;SDS011;19087;51.062;3.754;2022-07-06T13:28:58;7.57;;;2.92;;
32697;SDS011;19087;51.062;3.754;2022-07-06T13:31:25;9.98;;;3.40;;
32697;SDS011;19087;51.062;3.754;2022-07-06T13:33:51;10.82;;;3.60;;
32697;SDS011;19087;51.062;3.754;2022-07-06T13:36:17;6.75;;;3.45;;
32697;SDS011;19087;51.062;3.754;2022-07-06T13:38:42;11.80;;;3.47;;
32697;SDS011;19087;51.062;3.754;2022-07-06T13:41:08;9.10;;;3.75;;
32697;SDS011;19087;51.062;3.754;2022-07-06T13:43:34;8.68;;;3.20;;
32697;SDS011;19087;51.062;3.754;2022-07-06T13:46:06;7.85;;;4.22;;
32697;SDS011;19087;51.062;3.754;2022-07-06T13:48:33;10.10;;;3.80;;
32697;SDS011;19087;51.062;3.754;2022-07-06T13:50:59;7.50;;;3.40;;
32697;SDS011;19087;51.062;3.754;2022-07-06T13:53:26;11.05;;;3.42;;
32697;SDS011;19087;51.062;3.754;2022-07-06T13:55:52;10.18;;;3.55;;
32697;SDS011;19087;51.062;3.754;2022-07-06T13:58:18;13.95;;;3.55;;
32697;SDS011;19087;51.062;3.754;2022-07-06T14:00:45;8.82;;;3.60;;
32697;SDS011;19087;51.062;3.754;2022-07-06T14:03:11;7.68;;;3.63;;
32697;SDS011;19087;51.062;3.754;2022-07-06T14:05:37;7.18;;;3.22;;
32697;SDS011;19087;51.062;3.754;2022-07-06T14:08:03;9.77;;;3.22;;
32697;SDS011;19087;51.062;3.754;2022-07-06T14:10:29;6.90;;;3.33;;
32697;SDS011;19087;51.062;3.754;2022-07-06T14:12:54;9.05;;;3.47;;
32697;SDS011;19087;51.062;3.754;2022-07-06T14:15:20;9.50;;;3.42;;
32697;SDS011;19087;51.062;3.754;2022-07-06T14:17:47;5.60;;;2.95;;
32697;SDS011;19087;51.062;3.754;2022-07-06T14:20:13;9.13;;;3.03;;
32697;SDS011;19087;51.062;3.754;2022-07-06T14:22:39;5.68;;;2.45;;
32697;SDS011;19087;51.062;3.754;2022-07-06T14:25:05;5.72;;;3.15;;
32697;SDS011;19087;51.062;3.754;2022-07-06T14:27:32;6.78;;;2.88;;
32697;SDS011;19087;51.062;3.754;2022-07-06T14:29:58;6.03;;;2.45;;
32697;SDS011;19087;51.062;3.754;2022-07-06T14:32:24;9.73;;;2.75;;
32697;SDS011;19087;51.062;3.754;2022-07-06T14:34:50;7.03;;;3.00;;
32697;SDS011;19087;51.062;3.754;2022-07-06T14:37:15;7.82;;;2.67;;
32697;SDS011;19087;51.062;3.754;2022-07-06T14:39:41;8.73;;;3.40;;
32697;SDS011;19087;51.062;3.754;2022-07-06T14:42:07;7.72;;;2.53;;
32697;SDS011;19087;51.062;3.754;2022-07-06T14:44:34;9.60;;;3.40;;
32697;SDS011;19087;51.062;3.754;2022-07-06T14:47:00;12.20;;;3.17;;
32697;SDS011;19087;51.062;3.754;2022-07-06T14:49:25;7.35;;;3.10;;
32697;SDS011;19087;51.062;3.754;2022-07-06T14:51:51;6.97;;;2.75;;
32697;SDS011;19087;51.062;3.754;2022-07-06T14:54:17;10.75;;;3.00;;
32697;SDS011;19087;51.062;3.754;2022-07-06T14:56:43;9.77;;;3.22;;
32697;SDS011;19087;51.062;3.754;2022-07-06T14:59:09;9.93;;;2.70;;
32697;SDS011;19087;51.062;3.754;2022-07-06T15:01:34;6.40;;;2.90;;
32697;SDS011;19087;51.062;3.754;2022-07-06T15:04:00;10.60;;;3.00;;
32697;SDS011;19087;51.062;3.754;2022-07-06T15:06:25;6.70;;;2.63;;
32697;SDS011;19087;51.062;3.754;2022-07-06T15:08:52;14.63;;;3.35;;
32697;SDS011;19087;51.062;3.754;2022-07-06T15:11:17;9.35;;;2.85;;
32697;SDS011;19087;51.062;3.754;2022-07-06T15:13:43;11.10;;;2.45;;